Погода Катаболана 2 недели

Бие, Ангола

21 июля-02 августа
  • 21июля
    Сегодня
    +14°
    +29°
    Ясно и безоблачно
    ВремяПогодаТемператураВлажностьДавлениеВетер, м/сВероятность осадков
    01:00Ясно и безоблачно+16°C34 %639 мм2.9 м/с1 %
    04:00Ясно и безоблачно+17°C25 %640 мм0.9 м/с1 %
    07:00Ясно и безоблачно+14°C41 %640 мм0.9 м/с1 %
    10:00Ясно и безоблачно+23°C18 %643 мм2.4 м/с1 %
    13:00Ясно и безоблачно+27°C13 %642 мм1.7 м/с1 %
    16:00Ясно и безоблачно+28°C14 %641 мм0.8 м/с1 %
    19:00Ясно и безоблачно+22°C23 %640 мм1.5 м/с1 %
    22:00Ясно и безоблачно+19°C27 %640 мм2.3 м/с1 %
  • 22июля
    Понедельник
    +15°
    +30°
    Ясно и безоблачно
    ВремяПогодаТемператураВлажностьДавлениеВетер, м/сВероятность осадков
    01:00Ясно и безоблачно+16°C34 %638 мм2.0 м/с1 %
    04:00Небольшая облачность+16°C34 %639 мм1.5 м/с1 %
    07:00Ясно и безоблачно+16°C30 %641 мм3.1 м/с1 %
    10:00Ясно и безоблачно+24°C19 %644 мм2.3 м/с1 %
    13:00Ясно и безоблачно+29°C15 %643 мм2.6 м/с1 %
    16:00Ясно и безоблачно+29°C15 %642 мм1.4 м/с1 %
    19:00Ясно и безоблачно+22°C26 %641 мм2.5 м/с1 %
    22:00Ясно и безоблачно+20°C28 %641 мм2.3 м/с1 %
  • 23июля
    Вторник
    +14°
    +31°
    Ясно и безоблачно
    ВремяПогодаТемператураВлажностьДавлениеВетер, м/сВероятность осадков
    01:00Ясно и безоблачно+18°C31 %640 мм2.4 м/с1 %
    04:00Ясно и безоблачно+18°C37 %641 мм1.1 м/с1 %
    07:00Ясно и безоблачно+17°C35 %641 мм1.1 м/с1 %
    10:00Ясно и безоблачно+25°C18 %645 мм2.8 м/с1 %
    13:00Ясно и безоблачно+30°C12 %644 мм2.8 м/с1 %
    16:00Ясно и безоблачно+30°C10 %642 мм3.4 м/с1 %
    19:00Ясно и безоблачно+24°C17 %641 мм2.3 м/с1 %
    22:00Ясно и безоблачно+21°C22 %642 мм2.8 м/с1 %
  • 24июля
    Среда
    +13°
    +31°
    Ясно и безоблачно
    ВремяПогодаТемператураВлажностьДавлениеВетер, м/сВероятность осадков
    01:00Ясно и безоблачно+18°C22 %641 мм2.8 м/с1 %
    04:00Ясно и безоблачно+16°C24 %641 мм2.8 м/с1 %
    07:00Ясно и безоблачно+16°C26 %641 мм1.8 м/с1 %
    10:00Ясно и безоблачно+24°C15 %644 мм3.1 м/с1 %
    13:00Ясно и безоблачно+29°C9 %643 мм3.3 м/с1 %
    16:00Ясно и безоблачно+30°C7 %642 мм3.2 м/с1 %
    19:00Ясно и безоблачно+25°C13 %641 мм3.4 м/с1 %
    22:00Ясно и безоблачно+22°C16 %641 мм2.9 м/с1 %
Мы используем cookies
Соглашаюсь